createdAt,value
2022-08-19T00:02:12.126Z,80.19
2022-08-19T00:07:53.696Z,80.17
2022-08-19T00:12:02.132Z,80.02
2022-08-19T00:17:08.637Z,80.49
2022-08-19T00:27:25.447Z,80.92
2022-08-19T00:32:06.140Z,81.00
2022-08-19T00:36:41.050Z,81.24
2022-08-19T00:41:39.918Z,81.81
2022-08-19T00:46:42.608Z,82.15
2022-08-19T00:51:39.981Z,82.20
2022-08-19T00:56:36.255Z,82.29
2022-08-19T01:01:41.802Z,81.94
2022-08-19T01:06:47.270Z,81.94
2022-08-19T01:11:38.214Z,81.88
2022-08-19T01:16:38.902Z,81.94
2022-08-19T01:21:39.583Z,82.67
2022-08-19T01:26:41.117Z,83.17
2022-08-19T01:31:39.771Z,83.41
2022-08-19T01:36:39.127Z,83.71
2022-08-19T01:41:44.690Z,84.01
2022-08-19T01:46:40.035Z,84.06
2022-08-19T01:51:40.930Z,83.97
2022-08-19T01:56:43.766Z,83.98
2022-08-19T02:01:42.214Z,84.17
2022-08-19T02:06:42.836Z,84.27
2022-08-19T02:11:43.380Z,84.04
2022-08-19T02:16:46.800Z,84.17
2022-08-19T02:21:47.583Z,84.23
2022-08-19T02:26:48.190Z,84.39
2022-08-19T02:31:48.970Z,84.48
2022-08-19T02:36:51.878Z,84.64
2022-08-19T02:41:50.326Z,85.01
2022-08-19T02:46:51.648Z,85.39
2022-08-19T02:51:51.661Z,85.37
2022-08-19T02:56:56.815Z,85.48
2022-08-19T03:01:52.875Z,85.46
2022-08-19T03:06:53.530Z,85.68
2022-08-19T03:11:54.162Z,85.89
2022-08-19T03:16:54.814Z,85.85
2022-08-19T03:21:55.792Z,86.01
2022-08-19T03:27:04.239Z,86.18
2022-08-19T03:31:59.495Z,86.08
2022-08-19T03:37:00.740Z,86.18
2022-08-19T03:42:30.160Z,86.26
2022-08-19T03:47:01.518Z,86.46
2022-08-19T03:51:30.641Z,86.52
2022-08-19T03:56:29.940Z,86.70
2022-08-19T04:01:30.859Z,86.89
2022-08-19T04:06:31.366Z,86.59
2022-08-19T04:11:42.635Z,86.67
2022-08-19T04:16:37.823Z,86.64
2022-08-19T04:21:33.403Z,86.85
2022-08-19T04:26:34.129Z,86.97
2022-08-19T04:31:34.775Z,87.00
2022-08-19T04:36:35.384Z,87.18
2022-08-19T04:41:36.171Z,87.10
2022-08-19T04:46:39.686Z,87.18
2022-08-19T04:51:38.792Z,87.30
2022-08-19T04:56:38.180Z,87.48
2022-08-19T05:01:38.849Z,87.51
2022-08-19T05:06:39.493Z,87.53
2022-08-19T05:11:44.724Z,87.55
2022-08-19T05:16:45.476Z,87.56
2022-08-19T05:21:44.187Z,87.56
2022-08-19T05:26:49.564Z,87.75
2022-08-19T05:31:55.039Z,87.70
2022-08-19T05:36:46.256Z,87.70
2022-08-19T05:41:46.972Z,87.24
2022-08-19T05:46:47.548Z,87.30
2022-08-19T05:51:49.668Z,87.23
2022-08-19T05:56:48.924Z,87.32
2022-08-19T06:01:54.429Z,87.36
2022-08-19T06:06:50.374Z,87.56
2022-08-19T06:11:55.980Z,87.47
2022-08-19T06:16:51.497Z,87.27
2022-08-19T06:21:52.237Z,87.03
2022-08-19T06:27:01.472Z,86.87
2022-08-19T06:31:56.391Z,86.49
2022-08-19T06:36:57.211Z,86.32
2022-08-19T06:41:58.881Z,86.09
2022-08-19T06:46:58.546Z,85.82
2022-08-19T06:51:58.974Z,86.02
2022-08-19T06:56:59.810Z,86.24
2022-08-19T07:02:00.404Z,86.57
2022-08-19T07:07:12.469Z,86.02
2022-08-19T07:12:02.259Z,86.02
2022-08-19T07:17:02.480Z,86.10
2022-08-19T07:22:03.169Z,86.31
2022-08-19T07:27:03.813Z,86.00
2022-08-19T07:32:04.599Z,86.12
2022-08-19T07:37:10.308Z,86.04
2022-08-19T07:42:05.806Z,86.49
2022-08-19T07:47:12.038Z,86.91
2022-08-19T07:52:09.911Z,87.57
2022-08-19T07:57:10.567Z,87.72
2022-08-19T08:02:11.289Z,87.92
2022-08-19T08:07:12.758Z,87.70
2022-08-19T08:12:30.883Z,87.91
2022-08-19T08:17:13.275Z,87.51
2022-08-19T08:22:14.036Z,88.00
2022-08-19T08:27:14.659Z,87.45
2022-08-19T08:32:15.138Z,87.96
2022-08-19T08:37:16.173Z,88.53
2022-08-19T08:42:21.870Z,88.47
2022-08-19T08:47:22.550Z,88.35
2022-08-19T08:52:23.246Z,88.02
2022-08-19T08:57:24.010Z,87.99
2022-08-19T09:02:24.585Z,87.58
2022-08-19T09:07:33.889Z,87.66
2022-08-19T09:12:26.833Z,87.20
2022-08-19T09:17:26.648Z,87.28
2022-08-19T09:22:27.273Z,87.23
2022-08-19T09:27:41.838Z,86.96
2022-08-19T09:32:31.326Z,86.78
2022-08-19T09:37:32.045Z,86.56
2022-08-19T09:42:37.456Z,86.19
2022-08-19T09:47:33.485Z,85.55
2022-08-19T09:52:34.019Z,85.61
2022-08-19T09:57:34.774Z,85.51
2022-08-19T10:02:40.401Z,85.40
2022-08-19T10:07:36.839Z,85.06
2022-08-19T10:12:45.779Z,84.93
2022-08-19T10:17:40.360Z,84.92
2022-08-19T10:22:40.858Z,84.96
2022-08-19T10:27:48.382Z,84.91
2022-08-19T10:32:46.814Z,84.68
2022-08-19T10:37:53.246Z,84.67
2022-08-19T10:42:43.568Z,84.63
2022-08-19T10:47:49.583Z,84.50
2022-08-19T10:52:49.395Z,84.58
2022-08-19T10:58:01.627Z,84.78
2022-08-19T11:02:58.831Z,84.45
2022-08-19T11:07:50.120Z,84.57
2022-08-19T11:12:56.723Z,83.95
2022-08-19T11:17:57.636Z,84.34
2022-08-19T11:22:51.854Z,84.18
2022-08-19T11:27:52.889Z,83.83
2022-08-19T11:32:55.848Z,83.87
2022-08-19T11:37:56.538Z,84.01
2022-08-19T11:43:14.180Z,83.67
2022-08-19T11:58:18.592Z,83.48
2022-08-19T12:03:05.497Z,83.28
2022-08-19T12:08:06.428Z,83.16
2022-08-19T12:13:06.712Z,83.25
2022-08-19T12:18:08.083Z,83.05
2022-08-19T12:23:08.605Z,82.80
2022-08-19T12:28:11.419Z,82.58
2022-08-19T12:33:17.221Z,82.10
2022-08-19T12:38:13.537Z,81.90
2022-08-19T12:43:13.453Z,81.75
2022-08-19T12:48:31.343Z,81.98
2022-08-19T12:53:19.540Z,81.90
2022-08-19T12:58:22.260Z,81.85
2022-08-19T13:03:20.536Z,81.91
2022-08-19T13:08:19.602Z,81.75
2022-08-19T13:13:32.390Z,81.90
2022-08-19T13:18:21.030Z,81.07
2022-08-19T13:23:21.549Z,81.34
2022-08-19T13:28:22.232Z,81.33
2022-08-19T13:33:25.591Z,81.33
2022-08-19T13:38:26.322Z,80.93
2022-08-19T13:43:27.010Z,80.17
2022-08-19T13:48:33.468Z,80.09
2022-08-19T13:53:28.406Z,80.57
2022-08-19T13:58:29.350Z,80.44
2022-08-19T14:03:29.402Z,80.25
2022-08-19T14:08:34.043Z,80.14
2022-08-19T14:13:33.512Z,80.19
2022-08-19T14:18:34.180Z,80.01
2022-08-19T14:23:39.937Z,79.76
2022-08-19T14:28:35.383Z,79.69
2022-08-19T14:33:36.182Z,79.76
2022-08-19T14:38:37.937Z,79.69
2022-08-19T14:43:39.962Z,79.46
2022-08-19T14:48:41.555Z,78.78
2022-08-19T14:53:41.409Z,78.76
2022-08-19T14:58:42.085Z,78.89
2022-08-19T15:03:42.332Z,79.08
2022-08-19T15:08:43.065Z,79.20
2022-08-19T15:13:43.663Z,79.09
2022-08-19T15:18:44.240Z,79.07
2022-08-19T15:23:47.386Z,79.37
2022-08-19T15:28:48.071Z,79.45
2022-08-19T15:33:48.497Z,79.72
2022-08-19T15:38:49.196Z,79.34
2022-08-19T15:44:00.040Z,79.70
2022-08-19T15:48:56.260Z,79.41
2022-08-19T15:53:50.998Z,79.74
2022-08-19T16:03:55.125Z,79.79
2022-08-19T16:09:01.066Z,79.86
2022-08-19T16:13:57.371Z,79.92
2022-08-19T16:18:57.380Z,79.77
2022-08-19T16:24:03.108Z,79.85
2022-08-19T16:29:13.598Z,79.95
2022-08-19T16:34:02.113Z,80.03
2022-08-19T16:39:03.360Z,80.07
2022-08-19T16:44:03.508Z,80.01
2022-08-19T16:49:04.515Z,80.06
2022-08-19T16:54:05.217Z,80.12
2022-08-19T16:59:05.414Z,80.06
2022-08-19T17:04:15.458Z,80.05
2022-08-19T17:09:07.175Z,80.14
2022-08-19T17:14:07.401Z,80.03
2022-08-19T17:19:10.952Z,80.08
2022-08-19T17:24:21.045Z,80.25
2022-08-19T17:34:13.672Z,80.31
2022-08-19T17:39:19.117Z,80.22
2022-08-19T17:44:19.816Z,80.51
2022-08-19T17:49:20.844Z,80.62
2022-08-19T17:54:15.865Z,80.82
2022-08-19T17:59:30.180Z,80.95
2022-08-19T18:04:19.831Z,81.04
2022-08-19T18:09:20.945Z,81.26
2022-08-19T18:14:21.016Z,81.38
2022-08-19T18:19:22.166Z,81.41
2022-08-19T18:24:22.387Z,81.58
2022-08-19T18:29:23.173Z,81.61
2022-08-19T18:34:23.808Z,81.72
2022-08-19T18:51:51.913Z,81.24
2022-08-19T18:56:51.239Z,81.43
2022-08-19T19:01:51.721Z,81.42
2022-08-19T19:06:57.677Z,81.45
2022-08-19T19:11:53.149Z,81.66
2022-08-19T19:16:53.903Z,81.58
2022-08-19T19:21:54.434Z,81.89
2022-08-19T19:27:01.897Z,82.07
2022-08-19T19:31:58.604Z,82.13
2022-08-19T19:36:59.233Z,82.03
2022-08-19T19:41:59.958Z,81.86
2022-08-19T19:47:00.351Z,82.18
2022-08-19T19:52:01.142Z,82.05
2022-08-19T19:57:01.693Z,81.91
2022-08-19T20:02:02.292Z,81.83
2022-08-19T20:07:05.706Z,81.93
2022-08-19T20:12:06.395Z,82.13
2022-08-19T20:17:07.122Z,82.05
2022-08-19T20:22:07.815Z,82.10
2022-08-19T20:27:08.542Z,82.12
2022-08-19T20:32:09.288Z,82.10
2022-08-19T20:37:10.339Z,82.17
2022-08-19T20:42:10.561Z,82.26
2022-08-19T20:47:10.991Z,82.22
2022-08-19T20:52:14.434Z,82.34
2022-08-19T20:57:14.947Z,82.35
2022-08-19T21:02:15.754Z,82.43
2022-08-19T21:07:16.684Z,82.37
2022-08-19T21:12:21.646Z,82.44
2022-08-19T21:17:18.067Z,82.41
2022-08-19T21:22:30.007Z,82.34
2022-08-19T21:27:24.450Z,82.27
2022-08-19T21:32:25.271Z,82.30
2022-08-19T21:37:26.313Z,82.38
2022-08-19T21:42:26.503Z,82.45
2022-08-19T21:47:27.175Z,82.43
2022-08-19T21:52:27.853Z,82.44
2022-08-19T21:57:28.566Z,82.35
2022-08-19T22:02:29.228Z,82.38
2022-08-19T22:07:34.843Z,82.40
2022-08-19T22:12:33.274Z,82.42
2022-08-19T22:17:33.893Z,82.46
2022-08-19T22:22:34.646Z,82.54
2022-08-19T22:27:35.344Z,82.61
2022-08-19T22:32:40.830Z,82.63
2022-08-19T22:42:37.401Z,82.69
2022-08-19T22:47:39.198Z,82.90
2022-08-19T22:52:39.275Z,82.97
2022-08-19T22:58:12.358Z,83.00
2022-08-19T23:02:51.525Z,82.98
2022-08-19T23:07:43.598Z,82.97
2022-08-19T23:12:45.908Z,83.05
2022-08-19T23:17:45.556Z,82.94
2022-08-19T23:22:45.796Z,83.06
2022-08-19T23:27:51.774Z,83.06
2022-08-19T23:32:52.399Z,83.05
2022-08-19T23:37:53.500Z,82.97
2022-08-19T23:42:53.713Z,82.98
2022-08-19T23:47:54.356Z,83.14
2022-08-19T23:52:55.028Z,83.20
2022-08-19T23:57:56.007Z,83.24
